createdAt,value
2018-06-13T00:00:11.287Z,54.20
2018-06-13T00:01:08.239Z,54.10
2018-06-13T00:02:08.147Z,54.10
2018-06-13T00:03:10.801Z,54.10
2018-06-13T00:04:06.256Z,54.20
2018-06-13T00:05:11.275Z,54.20
2018-06-13T00:06:05.747Z,54.20
2018-06-13T00:07:05.613Z,54.20
2018-06-13T00:08:06.514Z,54.30
2018-06-13T00:09:06.069Z,54.30
2018-06-13T00:10:05.622Z,54.40
2018-06-13T00:11:06.128Z,54.50
2018-06-13T00:12:05.864Z,54.70
2018-06-13T00:13:09.435Z,54.70
2018-06-13T00:14:11.192Z,54.80
2018-06-13T00:15:08.890Z,54.70
2018-06-13T00:16:08.982Z,54.70
2018-06-13T00:17:06.170Z,54.70
2018-06-13T00:18:06.102Z,54.70
2018-06-13T00:19:10.879Z,54.60
2018-06-13T00:20:06.139Z,54.50
2018-06-13T00:21:10.578Z,54.40
2018-06-13T00:22:06.223Z,54.50
2018-06-13T00:23:06.529Z,54.70
2018-06-13T00:24:06.271Z,54.80
2018-06-13T00:25:05.789Z,54.70
2018-06-13T00:26:06.007Z,54.60
2018-06-13T00:27:09.725Z,54.60
2018-06-13T00:28:06.210Z,54.60
2018-06-13T00:29:09.056Z,54.40
2018-06-13T00:30:05.716Z,54.50
2018-06-13T00:31:06.394Z,54.40
2018-06-13T00:32:06.676Z,54.40
2018-06-13T00:33:05.902Z,54.40
2018-06-13T00:34:06.353Z,54.50
2018-06-13T00:35:05.675Z,54.60
2018-06-13T00:36:05.987Z,54.80
2018-06-13T00:37:05.851Z,54.90
2018-06-13T00:38:06.141Z,54.90
2018-06-13T00:39:06.346Z,55.00
2018-06-13T00:40:06.026Z,55.10
2018-06-13T00:41:06.441Z,55.10
2018-06-13T00:42:06.446Z,55.00
2018-06-13T00:43:06.363Z,55.10
2018-06-13T00:44:09.934Z,54.80
2018-06-13T00:45:11.671Z,54.80
2018-06-13T00:46:06.085Z,54.80
2018-06-13T00:47:10.895Z,54.90
2018-06-13T00:48:10.946Z,55.00
2018-06-13T00:49:06.463Z,55.00
2018-06-13T00:50:08.801Z,54.80
2018-06-13T00:51:14.469Z,54.80
2018-06-13T00:52:06.170Z,54.80
2018-06-13T00:53:06.326Z,54.70
2018-06-13T00:54:05.869Z,54.70
2018-06-13T00:55:05.613Z,54.80
2018-06-13T00:56:06.132Z,54.90
2018-06-13T00:57:10.957Z,54.90
2018-06-13T00:58:06.377Z,54.90
2018-06-13T00:59:06.190Z,55.00
2018-06-13T01:00:08.778Z,55.00
2018-06-13T01:01:06.256Z,55.00
2018-06-13T01:02:09.148Z,55.20
2018-06-13T01:03:08.271Z,55.10
2018-06-13T01:04:08.665Z,55.30
2018-06-13T01:05:07.307Z,55.30
2018-06-13T01:06:10.938Z,55.50
2018-06-13T01:07:06.177Z,55.50
2018-06-13T01:08:09.020Z,55.60
2018-06-13T01:09:05.749Z,55.60
2018-06-13T01:10:06.550Z,55.60
2018-06-13T01:11:06.070Z,55.60
2018-06-13T01:12:14.040Z,55.60
2018-06-13T01:13:05.810Z,55.60
2018-06-13T01:14:05.981Z,55.60
2018-06-13T01:15:09.018Z,55.50
2018-06-13T01:16:06.045Z,55.50
2018-06-13T01:17:08.279Z,55.70
2018-06-13T01:18:09.076Z,55.70
2018-06-13T01:19:05.661Z,55.60
2018-06-13T01:20:11.123Z,55.70
2018-06-13T01:21:05.616Z,55.70
2018-06-13T01:22:05.728Z,55.90
2018-06-13T01:23:08.964Z,55.70
2018-06-13T01:24:06.701Z,55.70
2018-06-13T01:25:06.647Z,55.70
2018-06-13T01:26:06.454Z,55.70
2018-06-13T01:27:08.670Z,55.70
2018-06-13T01:28:06.138Z,55.70
2018-06-13T01:29:06.280Z,55.80
2018-06-13T01:30:08.561Z,55.70
2018-06-13T01:31:08.545Z,55.90
2018-06-13T01:32:05.891Z,55.90
2018-06-13T01:33:05.900Z,55.80
2018-06-13T01:34:05.504Z,55.70
2018-06-13T01:35:11.438Z,55.70
2018-06-13T01:36:08.266Z,55.90
2018-06-13T01:37:05.780Z,55.90
2018-06-13T01:38:11.289Z,55.90
2018-06-13T01:39:06.726Z,55.90
2018-06-13T01:40:05.716Z,56.00
2018-06-13T01:41:06.464Z,56.00
2018-06-13T01:42:05.991Z,55.90
2018-06-13T01:43:05.926Z,55.90
2018-06-13T01:44:06.196Z,55.80
2018-06-13T01:45:06.261Z,55.90
2018-06-13T01:46:10.867Z,56.00
2018-06-13T01:47:06.239Z,56.10
2018-06-13T01:48:08.862Z,56.20
2018-06-13T01:49:08.959Z,56.30
2018-06-13T01:50:09.025Z,56.30
2018-06-13T01:51:10.501Z,56.50
2018-06-13T01:52:05.965Z,56.50
2018-06-13T01:53:08.122Z,57.30
2018-06-13T01:54:06.416Z,57.40
2018-06-13T01:55:10.901Z,57.20
2018-06-13T01:56:11.348Z,56.70
2018-06-13T01:57:16.186Z,56.80
2018-06-13T01:58:08.231Z,56.70
2018-06-13T01:59:10.708Z,56.70
2018-06-13T02:00:11.062Z,56.70
2018-06-13T02:01:06.086Z,56.60
2018-06-13T02:02:05.795Z,56.80
2018-06-13T02:03:06.465Z,56.80
2018-06-13T02:04:06.460Z,56.90
2018-06-13T02:05:06.693Z,56.70
2018-06-13T02:06:08.375Z,56.60
2018-06-13T02:07:08.263Z,56.70
2018-06-13T02:08:05.819Z,56.70
2018-06-13T02:09:11.456Z,56.70
2018-06-13T02:10:08.555Z,57.60
2018-06-13T02:11:11.041Z,57.70
2018-06-13T02:12:06.094Z,57.30
2018-06-13T02:13:08.924Z,57.00
2018-06-13T02:14:06.493Z,57.00
2018-06-13T02:15:06.271Z,56.90
2018-06-13T02:16:05.819Z,56.90
2018-06-13T02:17:06.433Z,57.10
2018-06-13T02:18:06.272Z,57.10
2018-06-13T02:19:08.301Z,57.10
2018-06-13T02:20:05.684Z,57.10
2018-06-13T02:21:06.338Z,56.90
2018-06-13T02:22:10.975Z,57.00
2018-06-13T02:23:08.986Z,57.30
2018-06-13T02:24:09.020Z,57.00
2018-06-13T02:25:08.971Z,56.90
2018-06-13T02:26:07.465Z,56.90
2018-06-13T02:27:05.936Z,56.90
2018-06-13T02:28:06.114Z,57.10
2018-06-13T02:29:06.231Z,57.30
2018-06-13T02:30:06.184Z,57.50
2018-06-13T02:31:06.475Z,57.40
2018-06-13T02:32:11.361Z,57.60
2018-06-13T02:33:08.440Z,57.40
2018-06-13T02:34:06.279Z,57.40
2018-06-13T02:35:10.023Z,57.50
2018-06-13T02:36:08.313Z,57.70
2018-06-13T02:37:06.307Z,57.70
2018-06-13T02:38:06.820Z,57.50
2018-06-13T02:39:06.546Z,57.50
2018-06-13T02:40:11.152Z,57.50
2018-06-13T02:41:11.013Z,57.50
2018-06-13T02:42:06.162Z,57.50
2018-06-13T02:43:09.340Z,57.60
2018-06-13T02:44:08.590Z,57.70
2018-06-13T02:45:07.237Z,57.70
2018-06-13T02:46:11.073Z,58.00
2018-06-13T02:47:10.736Z,57.90
2018-06-13T02:48:07.158Z,57.90
2018-06-13T02:49:05.917Z,57.90
2018-06-13T02:50:06.338Z,58.00
2018-06-13T02:51:06.122Z,58.00
2018-06-13T02:52:08.081Z,58.20
2018-06-13T02:53:05.575Z,58.20
2018-06-13T02:54:08.477Z,58.10
2018-06-13T02:55:05.946Z,58.20
2018-06-13T02:56:06.629Z,58.10
2018-06-13T02:57:06.495Z,58.10
2018-06-13T02:58:08.984Z,58.10
2018-06-13T02:59:06.551Z,58.10
2018-06-13T03:00:11.314Z,58.30
2018-06-13T03:01:10.632Z,58.50
2018-06-13T03:02:09.555Z,58.60
2018-06-13T03:03:08.575Z,58.70
2018-06-13T03:04:06.498Z,58.70
2018-06-13T03:05:09.709Z,58.80
2018-06-13T03:06:06.295Z,58.80
2018-06-13T03:07:06.104Z,58.90
2018-06-13T03:08:06.116Z,59.10
2018-06-13T03:09:06.500Z,59.00
2018-06-13T03:10:11.293Z,59.00
2018-06-13T03:11:10.999Z,59.10
2018-06-13T03:12:11.561Z,59.10
2018-06-13T03:13:06.232Z,59.20
2018-06-13T03:14:08.717Z,59.20
2018-06-13T03:15:06.142Z,59.30
2018-06-13T03:16:06.375Z,59.70
2018-06-13T03:17:11.507Z,59.40
2018-06-13T03:18:06.084Z,59.50
2018-06-13T03:19:05.920Z,59.50
2018-06-13T03:20:06.489Z,59.60
2018-06-13T03:21:06.222Z,59.60
2018-06-13T03:22:05.795Z,59.50
2018-06-13T03:23:10.794Z,59.60
2018-06-13T03:24:06.196Z,59.50
2018-06-13T03:25:07.169Z,59.60
2018-06-13T03:26:05.976Z,59.40
2018-06-13T03:27:06.310Z,59.30
2018-06-13T03:28:06.523Z,59.00
2018-06-13T03:29:11.441Z,58.80
2018-06-13T03:30:08.153Z,58.70
2018-06-13T03:31:08.115Z,58.80
2018-06-13T03:32:05.949Z,58.80
2018-06-13T03:33:05.914Z,58.90
2018-06-13T03:34:06.625Z,59.00
2018-06-13T03:35:08.927Z,59.40
2018-06-13T03:36:09.308Z,59.30
2018-06-13T03:37:05.962Z,59.40
2018-06-13T03:38:05.457Z,59.50
2018-06-13T03:39:06.720Z,59.40
2018-06-13T03:40:06.498Z,59.20
2018-06-13T03:41:09.639Z,59.00
2018-06-13T03:42:06.369Z,59.00
2018-06-13T03:43:06.095Z,59.00
2018-06-13T03:44:11.025Z,58.80
2018-06-13T03:45:05.737Z,58.90
2018-06-13T03:46:05.671Z,59.00
2018-06-13T03:47:06.381Z,59.10
2018-06-13T03:48:08.524Z,59.10
2018-06-13T03:49:11.116Z,59.20
2018-06-13T03:50:05.903Z,59.20
2018-06-13T03:51:06.566Z,59.30
2018-06-13T03:52:06.060Z,59.30
2018-06-13T03:53:06.324Z,59.30
2018-06-13T03:54:05.663Z,59.50
2018-06-13T03:55:08.266Z,59.10
2018-06-13T03:56:10.883Z,59.00
2018-06-13T03:57:08.103Z,59.30
2018-06-13T03:58:08.087Z,59.50
2018-06-13T03:59:05.885Z,59.50
2018-06-13T04:00:09.564Z,59.30
2018-06-13T04:01:09.497Z,59.20
2018-06-13T04:02:05.991Z,59.20
2018-06-13T04:03:11.113Z,59.30
2018-06-13T04:04:06.313Z,59.30
2018-06-13T04:05:06.139Z,59.10
2018-06-13T04:06:05.727Z,59.30
2018-06-13T04:07:06.709Z,59.40
2018-06-13T04:08:08.883Z,59.50
2018-06-13T04:09:06.661Z,59.50
2018-06-13T04:10:09.582Z,59.20
2018-06-13T04:11:06.540Z,59.10
2018-06-13T04:12:08.225Z,59.10
2018-06-13T04:13:06.016Z,59.00
2018-06-13T04:14:08.337Z,59.10
2018-06-13T04:15:08.345Z,59.50
2018-06-13T04:16:08.503Z,59.60
2018-06-13T04:17:06.154Z,59.60
2018-06-13T04:18:10.748Z,59.50
2018-06-13T04:19:06.317Z,59.70
2018-06-13T04:20:06.402Z,60.00
2018-06-13T04:21:06.171Z,60.30
2018-06-13T04:22:06.003Z,60.10
2018-06-13T04:23:05.923Z,60.00
2018-06-13T04:24:08.448Z,59.90
2018-06-13T04:25:09.130Z,59.50
2018-06-13T04:26:05.931Z,59.60
2018-06-13T04:27:05.785Z,59.60
2018-06-13T04:28:05.612Z,59.50
2018-06-13T04:29:08.808Z,59.90
2018-06-13T04:30:06.111Z,59.90
2018-06-13T04:31:06.199Z,60.10
2018-06-13T04:32:05.971Z,60.10
2018-06-13T04:33:06.172Z,60.30
2018-06-13T04:34:05.526Z,60.40
2018-06-13T04:35:05.880Z,60.60
2018-06-13T04:36:05.717Z,60.50
2018-06-13T04:37:09.092Z,60.40
2018-06-13T04:38:09.017Z,60.20
2018-06-13T04:39:10.618Z,60.30
2018-06-13T04:40:08.789Z,60.50
2018-06-13T04:41:09.300Z,60.50
2018-06-13T04:42:05.691Z,60.30
2018-06-13T04:43:06.160Z,60.00
2018-06-13T04:44:06.301Z,60.10
2018-06-13T04:45:13.558Z,60.20
2018-06-13T04:46:06.101Z,60.10
2018-06-13T04:47:06.687Z,60.20
2018-06-13T04:48:09.088Z,60.20
2018-06-13T04:49:05.973Z,60.20
2018-06-13T04:50:08.909Z,60.10
2018-06-13T04:51:06.419Z,60.20
2018-06-13T04:52:05.701Z,60.40
2018-06-13T04:53:08.701Z,60.30
2018-06-13T04:54:06.349Z,60.30
2018-06-13T04:55:06.039Z,60.50
2018-06-13T04:56:05.855Z,60.50
2018-06-13T04:57:09.347Z,60.80
2018-06-13T04:58:06.442Z,60.80
2018-06-13T04:59:08.848Z,60.90
2018-06-13T05:00:06.717Z,60.90
2018-06-13T05:01:06.114Z,61.00
2018-06-13T05:02:11.053Z,61.00
2018-06-13T05:03:08.706Z,61.00
2018-06-13T05:04:06.768Z,61.00
2018-06-13T05:05:16.472Z,61.10
2018-06-13T05:06:08.413Z,61.30
2018-06-13T05:07:10.953Z,61.10
2018-06-13T05:08:06.711Z,61.30
2018-06-13T05:09:07.642Z,61.50
2018-06-13T05:10:06.697Z,61.60
2018-06-13T05:11:06.679Z,61.80
2018-06-13T05:12:06.493Z,61.80
2018-06-13T05:13:08.821Z,62.80
2018-06-13T05:14:06.603Z,62.80
2018-06-13T05:15:06.175Z,63.50
2018-06-13T05:16:06.023Z,63.80
2018-06-13T05:17:08.442Z,64.40
2018-06-13T05:18:06.024Z,64.40
2018-06-13T05:19:05.675Z,65.00
2018-06-13T05:20:05.926Z,65.60
2018-06-13T05:21:06.278Z,65.80
2018-06-13T05:22:05.861Z,65.70
2018-06-13T05:23:09.446Z,66.50
2018-06-13T05:24:06.213Z,66.50
2018-06-13T05:25:06.116Z,67.40
2018-06-13T05:26:05.828Z,67.70
2018-06-13T05:27:08.168Z,68.60
2018-06-13T05:28:06.129Z,68.40
2018-06-13T05:29:08.175Z,68.70
2018-06-13T05:30:05.648Z,68.60
2018-06-13T05:31:06.618Z,68.80
2018-06-13T05:32:08.715Z,70.50
2018-06-13T05:33:06.671Z,70.50
2018-06-13T05:34:06.244Z,70.70
2018-06-13T05:35:11.132Z,71.50
2018-06-13T05:36:05.838Z,71.50
2018-06-13T05:37:06.092Z,71.50
2018-06-13T05:38:06.164Z,71.40
2018-06-13T05:39:05.847Z,72.00
2018-06-13T05:40:06.033Z,72.40
2018-06-13T05:41:10.719Z,72.50
2018-06-13T05:42:06.149Z,73.00
2018-06-13T05:43:06.247Z,73.60
2018-06-13T05:44:06.261Z,73.80
2018-06-13T05:45:06.017Z,73.80
2018-06-13T05:46:11.253Z,73.80
2018-06-13T05:47:11.019Z,74.00
2018-06-13T05:48:05.620Z,74.00
2018-06-13T05:49:08.964Z,74.10
2018-06-13T05:50:11.452Z,74.10
2018-06-13T05:51:08.869Z,74.50
2018-06-13T05:52:06.725Z,74.50
2018-06-13T05:53:09.271Z,74.40
2018-06-13T05:54:06.453Z,74.40
2018-06-13T05:55:06.585Z,74.70
2018-06-13T05:56:08.169Z,74.90
2018-06-13T05:57:10.635Z,75.40
2018-06-13T05:58:05.906Z,75.30
2018-06-13T05:59:05.831Z,75.20
2018-06-13T06:00:06.911Z,75.50
2018-06-13T06:01:10.988Z,74.90
2018-06-13T06:02:07.391Z,74.90
2018-06-13T06:03:11.304Z,74.70
2018-06-13T06:04:06.076Z,75.60
2018-06-13T06:05:06.077Z,75.70
2018-06-13T06:06:05.761Z,75.80
2018-06-13T06:07:06.349Z,74.90
2018-06-13T06:08:08.819Z,74.90
2018-06-13T06:09:06.557Z,74.90
2018-06-13T06:10:10.594Z,74.90
2018-06-13T06:11:10.987Z,74.90
2018-06-13T06:12:06.273Z,74.90
2018-06-13T06:13:09.771Z,74.90
2018-06-13T06:14:16.232Z,74.90
2018-06-13T06:15:06.109Z,75.40
2018-06-13T06:16:06.303Z,75.20
2018-06-13T06:17:05.979Z,75.20
2018-06-13T06:18:10.722Z,74.90
2018-06-13T06:19:08.101Z,74.40
2018-06-13T06:20:08.402Z,74.50
2018-06-13T06:21:06.358Z,74.50
2018-06-13T06:22:08.762Z,74.80
2018-06-13T06:23:08.859Z,74.90
2018-06-13T06:24:06.356Z,74.90
2018-06-13T06:25:09.095Z,75.20
2018-06-13T06:26:05.600Z,75.20
2018-06-13T06:27:06.451Z,75.00
2018-06-13T06:28:09.111Z,75.00
2018-06-13T06:29:06.076Z,75.00
2018-06-13T06:30:10.681Z,74.90
2018-06-13T06:31:08.754Z,74.10
2018-06-13T06:32:10.778Z,74.00
2018-06-13T06:33:06.482Z,74.00
2018-06-13T06:34:11.129Z,74.10
2018-06-13T06:35:08.953Z,73.80
2018-06-13T06:36:06.895Z,73.80
2018-06-13T06:37:05.923Z,73.80
2018-06-13T06:38:09.082Z,73.80
2018-06-13T06:39:10.678Z,73.70
2018-06-13T06:40:06.183Z,73.70
2018-06-13T06:41:05.868Z,73.50
2018-06-13T06:42:10.889Z,73.30
2018-06-13T06:43:06.498Z,73.40
2018-06-13T06:44:06.572Z,73.30
2018-06-13T06:45:12.534Z,73.40
2018-06-13T06:46:08.498Z,72.90
2018-06-13T06:47:06.114Z,72.80
2018-06-13T06:48:05.771Z,73.00
2018-06-13T06:49:09.793Z,72.50
2018-06-13T06:50:06.376Z,72.50
2018-06-13T06:51:06.139Z,72.60
2018-06-13T06:52:06.616Z,72.80
2018-06-13T06:53:08.253Z,73.00
2018-06-13T06:54:05.757Z,73.00
2018-06-13T06:55:10.864Z,72.70
2018-06-13T06:56:06.589Z,72.90
2018-06-13T06:57:08.662Z,73.10
2018-06-13T06:58:08.842Z,73.60
2018-06-13T06:59:06.320Z,73.60
2018-06-13T07:00:05.587Z,73.30
2018-06-13T07:01:05.471Z,73.30
2018-06-13T07:02:05.717Z,73.30
2018-06-13T07:03:09.126Z,73.30
2018-06-13T07:04:10.596Z,73.40
2018-06-13T07:05:07.394Z,73.30
2018-06-13T07:06:10.938Z,73.20
2018-06-13T07:07:11.030Z,73.20
2018-06-13T07:08:11.139Z,73.00
2018-06-13T07:09:05.576Z,72.80
2018-06-13T07:10:11.057Z,73.00
2018-06-13T07:11:05.609Z,73.00
2018-06-13T07:12:08.585Z,72.90
2018-06-13T07:13:08.716Z,73.10
2018-06-13T07:14:08.792Z,73.00
2018-06-13T07:15:06.588Z,73.00
2018-06-13T07:16:05.524Z,72.90
2018-06-13T07:17:14.051Z,72.70
2018-06-13T07:18:10.863Z,72.20
2018-06-13T07:19:05.801Z,72.20
2018-06-13T07:20:11.442Z,72.20
2018-06-13T07:21:05.845Z,72.30
2018-06-13T07:22:06.183Z,72.50
2018-06-13T07:23:05.953Z,72.60
2018-06-13T07:24:05.694Z,73.40
2018-06-13T07:25:08.788Z,73.20
2018-06-13T07:26:10.633Z,73.20
2018-06-13T07:27:09.858Z,73.30
2018-06-13T07:28:05.635Z,73.30
2018-06-13T07:29:09.629Z,73.10
2018-06-13T07:30:11.421Z,73.10
2018-06-13T07:31:06.279Z,73.00
2018-06-13T07:32:06.023Z,72.90
2018-06-13T07:33:09.110Z,73.00
2018-06-13T07:34:13.529Z,72.90
2018-06-13T07:35:05.623Z,72.90
2018-06-13T07:36:09.928Z,72.10
2018-06-13T07:37:06.662Z,72.10
2018-06-13T07:38:11.353Z,72.00
2018-06-13T07:39:05.701Z,71.10
2018-06-13T07:40:06.403Z,70.90
2018-06-13T07:41:06.489Z,71.00
2018-06-13T07:42:05.934Z,71.40
2018-06-13T07:43:05.761Z,71.70
2018-06-13T07:44:06.392Z,71.80
2018-06-13T07:45:08.420Z,72.20
2018-06-13T07:46:05.896Z,72.20
2018-06-13T07:47:11.348Z,71.90
2018-06-13T07:48:06.213Z,71.60
2018-06-13T07:49:05.706Z,71.30
2018-06-13T07:50:06.544Z,70.80
2018-06-13T07:51:06.262Z,71.00
2018-06-13T07:52:08.146Z,70.60
2018-06-13T07:53:08.483Z,70.40
2018-06-13T07:54:06.095Z,70.40
2018-06-13T07:55:09.772Z,69.10
2018-06-13T07:56:08.741Z,69.10
2018-06-13T07:57:06.578Z,69.10
2018-06-13T07:58:05.900Z,69.10
2018-06-13T07:59:05.878Z,69.60
2018-06-13T08:00:06.585Z,69.80
2018-06-13T08:01:05.601Z,69.30
2018-06-13T08:02:06.016Z,68.80
2018-06-13T08:03:06.176Z,68.90
2018-06-13T08:04:06.570Z,68.90
2018-06-13T08:05:06.822Z,68.90
2018-06-13T08:06:06.632Z,69.10
2018-06-13T08:07:09.449Z,69.20
2018-06-13T08:08:10.993Z,68.70
2018-06-13T08:09:06.398Z,68.60
2018-06-13T08:10:06.234Z,68.60
2018-06-13T08:11:06.474Z,68.60
2018-06-13T08:12:06.191Z,68.80
2018-06-13T08:13:10.792Z,68.90
2018-06-13T08:14:11.299Z,69.30
2018-06-13T08:15:06.721Z,69.30
2018-06-13T08:16:06.388Z,69.00
2018-06-13T08:17:05.754Z,68.00
2018-06-13T08:18:06.372Z,67.40
2018-06-13T08:19:05.961Z,67.10
2018-06-13T08:20:06.741Z,67.10
2018-06-13T08:21:06.817Z,67.00
2018-06-13T08:22:07.054Z,67.10
2018-06-13T08:23:08.199Z,67.10
2018-06-13T08:24:05.495Z,67.10
2018-06-13T08:25:09.073Z,65.90
2018-06-13T08:26:08.293Z,65.50
2018-06-13T08:27:08.410Z,65.60
2018-06-13T08:28:05.941Z,65.60
2018-06-13T08:29:06.084Z,65.70
2018-06-13T08:30:05.739Z,65.70
2018-06-13T08:31:08.684Z,65.70
2018-06-13T08:32:06.108Z,65.70
2018-06-13T08:33:08.401Z,65.20
2018-06-13T08:34:05.916Z,65.30
2018-06-13T08:35:06.012Z,64.70
2018-06-13T08:36:13.193Z,63.80
2018-06-13T08:37:10.675Z,63.30
2018-06-13T08:38:06.069Z,63.40
2018-06-13T08:39:09.908Z,62.10
2018-06-13T08:40:06.462Z,62.10
2018-06-13T08:41:14.009Z,60.10
2018-06-13T08:42:08.087Z,60.30
2018-06-13T08:43:05.674Z,60.30
2018-06-13T08:44:05.771Z,60.50
2018-06-13T08:45:06.435Z,60.90
2018-06-13T08:46:10.703Z,60.90
2018-06-13T08:47:06.032Z,60.60
2018-06-13T08:48:05.958Z,60.50
2018-06-13T08:49:11.317Z,61.10
2018-06-13T08:50:06.402Z,61.10
2018-06-13T08:51:06.375Z,61.10
2018-06-13T08:52:08.199Z,61.00
2018-06-13T08:53:05.657Z,61.00
2018-06-13T08:54:11.425Z,60.80
2018-06-13T08:55:05.997Z,60.80
2018-06-13T08:56:08.504Z,60.60
2018-06-13T08:57:05.961Z,60.60
2018-06-13T08:58:05.864Z,60.10
2018-06-13T08:59:06.832Z,59.90
2018-06-13T09:00:06.494Z,59.20
2018-06-13T09:01:06.760Z,59.20
2018-06-13T09:02:10.953Z,59.50
2018-06-13T09:03:09.057Z,58.80
2018-06-13T09:04:05.919Z,58.80
2018-06-13T09:05:08.536Z,58.10
2018-06-13T09:06:05.975Z,58.10
2018-06-13T09:07:05.828Z,58.30
2018-06-13T09:08:06.647Z,58.90
2018-06-13T09:09:08.839Z,59.10
2018-06-13T09:10:06.490Z,59.20
2018-06-13T09:11:06.612Z,59.40
2018-06-13T09:12:09.162Z,59.30
2018-06-13T09:13:11.734Z,59.30
2018-06-13T09:14:06.296Z,59.50
2018-06-13T09:15:06.158Z,59.70
2018-06-13T09:16:06.266Z,59.90
2018-06-13T09:17:11.507Z,60.30
2018-06-13T09:18:05.967Z,60.30
2018-06-13T09:19:08.769Z,60.50
2018-06-13T09:20:06.263Z,60.50
2018-06-13T09:21:08.160Z,60.60
2018-06-13T09:22:11.115Z,60.60
2018-06-13T09:23:11.311Z,59.90
2018-06-13T09:24:06.202Z,59.90
2018-06-13T09:25:06.182Z,60.00
2018-06-13T09:26:08.266Z,60.60
2018-06-13T09:27:05.933Z,60.50
2018-06-13T09:28:06.075Z,59.90
2018-06-13T09:29:07.280Z,59.90
2018-06-13T09:30:10.960Z,59.80
2018-06-13T09:31:06.519Z,60.10
2018-06-13T09:32:13.646Z,59.10
2018-06-13T09:33:06.088Z,59.10
2018-06-13T09:34:08.287Z,59.10
2018-06-13T09:35:06.244Z,59.10
2018-06-13T09:36:06.355Z,59.20
2018-06-13T09:37:06.074Z,59.10
2018-06-13T09:38:05.708Z,59.10
2018-06-13T09:39:08.949Z,59.00
2018-06-13T09:40:11.423Z,59.20
2018-06-13T09:41:05.551Z,59.20
2018-06-13T09:42:08.635Z,59.30
2018-06-13T09:43:10.866Z,59.40
2018-06-13T09:44:11.340Z,59.50
2018-06-13T09:45:05.973Z,59.50
2018-06-13T09:46:12.709Z,58.50
2018-06-13T09:47:15.132Z,58.50
2018-06-13T09:48:06.412Z,58.60
2018-06-13T09:49:06.381Z,58.60
2018-06-13T09:50:06.714Z,59.00
2018-06-13T09:51:06.509Z,58.60
2018-06-13T09:52:08.860Z,57.70
2018-06-13T09:53:13.872Z,57.40
2018-06-13T09:54:08.908Z,57.50
2018-06-13T09:55:08.798Z,57.60
2018-06-13T09:56:11.308Z,57.60
2018-06-13T09:57:06.453Z,57.50
2018-06-13T09:58:05.639Z,56.90
2018-06-13T09:59:06.435Z,56.60
2018-06-13T10:00:08.687Z,56.20
2018-06-13T10:01:06.337Z,56.20
2018-06-13T10:02:06.337Z,56.10
2018-06-13T10:03:09.665Z,55.60
2018-06-13T10:04:06.148Z,55.70
2018-06-13T10:05:06.096Z,55.70
2018-06-13T10:06:06.211Z,55.60
2018-06-13T10:07:11.192Z,55.60
2018-06-13T10:08:05.996Z,55.20
2018-06-13T10:09:05.818Z,54.60
2018-06-13T10:10:14.004Z,54.20
2018-06-13T10:11:06.666Z,54.20
2018-06-13T10:12:05.931Z,54.50
2018-06-13T10:13:10.828Z,54.90
2018-06-13T10:14:11.142Z,54.30
2018-06-13T10:15:06.612Z,54.30
2018-06-13T10:16:06.281Z,54.30
2018-06-13T10:17:07.044Z,54.30
2018-06-13T10:18:05.929Z,54.50
2018-06-13T10:19:05.891Z,53.50
2018-06-13T10:20:05.971Z,53.40
2018-06-13T10:21:11.097Z,53.90
2018-06-13T10:22:06.453Z,53.90
2018-06-13T10:23:06.350Z,52.70
2018-06-13T10:24:06.476Z,52.60
2018-06-13T10:25:06.602Z,52.70
2018-06-13T10:26:07.043Z,53.00
2018-06-13T10:27:06.896Z,53.50
2018-06-13T10:28:05.704Z,53.40
2018-06-13T10:29:13.318Z,52.80
2018-06-13T10:30:08.362Z,52.00
2018-06-13T10:31:06.384Z,52.00
2018-06-13T10:32:06.445Z,51.20
2018-06-13T10:33:06.402Z,51.60
2018-06-13T10:34:06.418Z,52.20
2018-06-13T10:35:05.796Z,51.50
2018-06-13T10:36:06.852Z,0.40
2018-06-13T10:37:05.968Z,51.90
2018-06-13T10:38:05.653Z,52.30
2018-06-13T10:39:05.836Z,52.40
2018-06-13T10:40:06.385Z,52.40
2018-06-13T10:41:06.562Z,52.40
2018-06-13T10:42:06.219Z,52.50
2018-06-13T10:43:08.874Z,53.40
2018-06-13T10:44:06.645Z,53.40
2018-06-13T10:45:05.719Z,53.40
2018-06-13T10:46:05.753Z,53.00
2018-06-13T10:47:06.093Z,52.80
2018-06-13T10:48:11.430Z,53.30
2018-06-13T10:49:06.930Z,53.30
2018-06-13T10:50:05.686Z,53.80
2018-06-13T10:51:06.483Z,53.90
2018-06-13T10:52:06.303Z,54.20
2018-06-13T10:53:06.541Z,53.70
2018-06-13T10:54:06.671Z,53.50
2018-06-13T10:55:11.315Z,53.80
2018-06-13T10:56:06.080Z,54.10
2018-06-13T10:57:11.325Z,54.40
2018-06-13T10:58:06.335Z,54.30
2018-06-13T10:59:13.664Z,54.60
2018-06-13T11:00:06.691Z,54.60
2018-06-13T11:01:08.267Z,54.90
2018-06-13T11:02:05.732Z,54.90
2018-06-13T11:03:11.236Z,54.80
2018-06-13T11:04:09.247Z,53.80
2018-06-13T11:05:05.760Z,53.80
2018-06-13T11:06:06.138Z,53.90
2018-06-13T11:07:08.050Z,54.40
2018-06-13T11:08:05.918Z,54.40
2018-06-13T11:09:08.125Z,54.00
2018-06-13T11:10:05.528Z,54.00
2018-06-13T11:11:08.593Z,53.60
2018-06-13T11:12:06.324Z,53.60
2018-06-13T11:13:05.864Z,53.30
2018-06-13T11:14:10.636Z,52.60
2018-06-13T11:15:05.963Z,52.60
2018-06-13T11:16:08.832Z,52.50
2018-06-13T11:17:06.553Z,52.50
2018-06-13T11:18:05.550Z,52.70
2018-06-13T11:19:08.136Z,53.00
2018-06-13T11:20:08.208Z,52.40
2018-06-13T11:21:10.852Z,52.60
2018-06-13T11:22:08.627Z,52.50
2018-06-13T11:23:09.536Z,52.70
2018-06-13T11:24:06.882Z,52.80
2018-06-13T11:25:13.997Z,52.10
2018-06-13T11:26:05.973Z,52.10
2018-06-13T11:27:08.245Z,52.20
2018-06-13T11:28:08.515Z,52.40
2018-06-13T11:29:05.756Z,52.40
2018-06-13T11:30:11.185Z,52.30
2018-06-13T11:31:08.917Z,51.80
2018-06-13T11:32:05.997Z,51.80
2018-06-13T11:33:06.127Z,52.00
2018-06-13T11:34:05.664Z,51.90
2018-06-13T11:35:06.224Z,51.90
2018-06-13T11:36:06.300Z,51.90
2018-06-13T11:37:09.039Z,51.60
2018-06-13T11:38:05.612Z,51.70
2018-06-13T11:39:08.597Z,51.40
2018-06-13T11:40:08.676Z,51.60
2018-06-13T11:41:06.060Z,51.50
2018-06-13T11:42:06.108Z,50.00
2018-06-13T11:43:06.064Z,50.60
2018-06-13T11:44:10.767Z,50.60
2018-06-13T11:45:06.428Z,50.60
2018-06-13T11:46:11.134Z,51.30
2018-06-13T11:47:06.141Z,51.30
2018-06-13T11:48:09.278Z,51.30
2018-06-13T11:49:05.869Z,51.30
2018-06-13T11:50:05.681Z,51.10
2018-06-13T11:51:06.781Z,51.90
2018-06-13T11:52:06.114Z,52.40
2018-06-13T11:53:06.250Z,52.40
2018-06-13T11:54:06.183Z,51.90
2018-06-13T11:55:08.472Z,51.40
2018-06-13T11:56:10.974Z,51.50
2018-06-13T11:57:06.644Z,51.20
2018-06-13T11:58:08.535Z,51.00
2018-06-13T11:59:11.031Z,51.20
2018-06-13T12:00:05.952Z,51.30
2018-06-13T12:01:08.783Z,50.40
2018-06-13T12:02:05.787Z,50.30
2018-06-13T12:03:05.416Z,49.70
2018-06-13T12:04:08.881Z,49.10
2018-06-13T12:05:06.328Z,49.10
2018-06-13T12:06:08.634Z,48.90
2018-06-13T12:07:06.618Z,48.80
2018-06-13T12:08:10.646Z,49.30
2018-06-13T12:09:10.763Z,49.40
2018-06-13T12:10:06.312Z,49.80
2018-06-13T12:11:16.094Z,51.20
2018-06-13T12:12:10.721Z,51.20
2018-06-13T12:13:06.335Z,50.50
2018-06-13T12:14:10.698Z,50.40
2018-06-13T12:15:11.054Z,50.50
2018-06-13T12:16:09.081Z,49.30
2018-06-13T12:17:06.705Z,49.30
2018-06-13T12:18:06.278Z,49.50
2018-06-13T12:19:11.223Z,49.10
2018-06-13T12:20:06.129Z,49.10
2018-06-13T12:21:06.143Z,49.20
2018-06-13T12:22:11.105Z,48.60
2018-06-13T12:23:08.109Z,48.70
2018-06-13T12:24:05.707Z,48.70
2018-06-13T12:25:06.027Z,48.90
2018-06-13T12:26:09.014Z,49.00
2018-06-13T12:27:05.795Z,49.00
2018-06-13T12:28:10.829Z,48.60
2018-06-13T12:29:06.601Z,48.10
2018-06-13T12:30:05.858Z,48.10
2018-06-13T12:31:06.519Z,47.70
2018-06-13T12:32:06.599Z,47.80
2018-06-13T12:33:05.537Z,47.80
2018-06-13T12:34:08.773Z,48.40
2018-06-13T12:35:06.427Z,48.40
2018-06-13T12:36:08.604Z,48.30
2018-06-13T12:37:06.802Z,48.30
2018-06-13T12:38:11.538Z,48.00
2018-06-13T12:39:06.254Z,47.60
2018-06-13T12:40:08.923Z,47.90
2018-06-13T12:41:06.102Z,47.90
2018-06-13T12:42:05.880Z,47.90
2018-06-13T12:43:11.450Z,48.30
2018-06-13T12:44:06.417Z,48.50
2018-06-13T12:45:06.386Z,48.70
2018-06-13T12:46:06.266Z,49.20
2018-06-13T12:47:05.863Z,48.50
2018-06-13T12:48:08.890Z,48.50
2018-06-13T12:49:08.929Z,48.70
2018-06-13T12:50:06.460Z,48.70
2018-06-13T12:51:11.197Z,48.70
2018-06-13T12:52:06.234Z,48.70